createdAt,value
2023-05-09T00:02:22.369Z,12.90
2023-05-09T00:04:50.382Z,13.04
2023-05-09T00:07:18.676Z,12.63
2023-05-09T00:09:47.961Z,12.85
2023-05-09T00:12:15.723Z,12.73
2023-05-09T00:14:45.455Z,12.84
2023-05-09T00:17:15.745Z,12.81
2023-05-09T00:19:43.662Z,12.76
2023-05-09T00:22:12.918Z,12.42
2023-05-09T00:24:40.757Z,12.41
2023-05-09T00:27:10.356Z,12.91
2023-05-09T00:29:38.108Z,12.38
2023-05-09T00:32:06.385Z,12.14
2023-05-09T00:34:34.492Z,12.51
2023-05-09T00:37:02.515Z,12.57
2023-05-09T00:39:30.839Z,12.40
2023-05-09T00:41:58.614Z,12.68
2023-05-09T00:44:27.732Z,12.70
2023-05-09T00:46:55.828Z,12.23
2023-05-09T00:49:23.623Z,12.49
2023-05-09T00:51:51.565Z,12.69
2023-05-09T00:54:19.657Z,12.07
2023-05-09T00:56:47.970Z,12.45
2023-05-09T00:59:17.429Z,12.37
2023-05-09T01:01:47.229Z,12.09
2023-05-09T01:04:16.215Z,12.21
2023-05-09T01:06:53.472Z,12.15
2023-05-09T01:09:26.086Z,12.47
2023-05-09T01:12:03.465Z,12.27
2023-05-09T01:14:38.777Z,12.04
2023-05-09T01:17:19.237Z,11.99
2023-05-09T01:19:58.373Z,11.95
2023-05-09T01:22:31.946Z,12.03
2023-05-09T01:25:37.619Z,12.22
2023-05-09T01:28:14.892Z,11.93
2023-05-09T01:30:48.030Z,11.69
2023-05-09T01:33:20.295Z,11.61
2023-05-09T01:35:52.632Z,11.92
2023-05-09T01:38:24.751Z,11.65
2023-05-09T01:40:56.035Z,12.09
2023-05-09T01:43:26.889Z,11.96
2023-05-09T01:45:57.303Z,11.81
2023-05-09T01:48:27.235Z,11.58
2023-05-09T01:50:55.957Z,11.87
2023-05-09T01:53:25.866Z,11.45
2023-05-09T01:55:53.972Z,11.58
2023-05-09T01:58:23.373Z,11.51
2023-05-09T02:00:52.045Z,11.45
2023-05-09T02:03:22.310Z,11.51
2023-05-09T02:05:51.453Z,11.50
2023-05-09T02:08:21.766Z,11.29
2023-05-09T02:10:50.122Z,11.57
2023-05-09T02:13:18.237Z,11.61
2023-05-09T02:15:46.454Z,11.21
2023-05-09T02:18:14.240Z,11.28
2023-05-09T02:20:43.485Z,11.27
2023-05-09T02:23:11.505Z,11.43
2023-05-09T02:25:40.394Z,11.24
2023-05-09T02:28:10.004Z,11.10
2023-05-09T02:30:42.835Z,11.37
2023-05-09T02:33:13.003Z,11.03
2023-05-09T02:35:42.946Z,11.13
2023-05-09T02:38:13.200Z,11.07
2023-05-09T02:40:43.382Z,11.20
2023-05-09T02:43:11.166Z,11.36
2023-05-09T02:45:38.970Z,10.99
2023-05-09T02:48:08.987Z,10.82
2023-05-09T02:50:38.338Z,11.13
2023-05-09T02:53:06.576Z,10.96
2023-05-09T02:55:35.878Z,11.08
2023-05-09T02:58:13.290Z,10.84
2023-05-09T03:00:42.288Z,11.08
2023-05-09T03:03:10.333Z,11.01
2023-05-09T03:05:38.310Z,11.00
2023-05-09T03:08:06.793Z,10.57
2023-05-09T03:10:36.118Z,10.88
2023-05-09T03:13:04.024Z,11.08
2023-05-09T03:15:31.827Z,10.92
2023-05-09T03:17:59.639Z,10.89
2023-05-09T03:20:27.784Z,10.96
2023-05-09T03:22:55.579Z,10.67
2023-05-09T03:25:24.135Z,10.79
2023-05-09T03:27:53.231Z,10.56
2023-05-09T03:30:21.207Z,10.79
2023-05-09T03:32:49.170Z,10.91
2023-05-09T03:35:17.148Z,10.61
2023-05-09T03:37:45.165Z,10.77
2023-05-09T03:40:13.406Z,10.88
2023-05-09T03:42:41.145Z,10.80
2023-05-09T03:45:11.552Z,10.57
2023-05-09T03:47:39.398Z,10.80
2023-05-09T03:50:08.457Z,10.85
2023-05-09T03:52:37.298Z,10.72
2023-05-09T03:55:05.873Z,10.60
2023-05-09T03:57:36.011Z,10.78
2023-05-09T04:00:06.153Z,10.71
2023-05-09T04:02:36.013Z,10.63
2023-05-09T04:05:04.308Z,10.77
2023-05-09T04:07:32.104Z,10.67
2023-05-09T04:09:59.895Z,10.53
2023-05-09T04:12:27.787Z,10.56
2023-05-09T04:14:55.623Z,10.67
2023-05-09T04:17:23.339Z,10.78
2023-05-09T04:19:52.688Z,10.76
2023-05-09T04:22:20.343Z,11.11
2023-05-09T04:24:48.028Z,10.92
2023-05-09T04:27:15.796Z,10.93
2023-05-09T04:29:43.528Z,10.95
2023-05-09T04:32:12.049Z,11.10
2023-05-09T04:34:39.844Z,11.28
2023-05-09T04:37:09.086Z,11.24
2023-05-09T04:39:36.825Z,11.06
2023-05-09T04:42:04.804Z,11.49
2023-05-09T04:44:33.183Z,11.55
2023-05-09T04:47:01.011Z,11.28
2023-05-09T04:49:28.811Z,11.02
2023-05-09T04:51:56.553Z,11.46
2023-05-09T04:54:26.083Z,11.80
2023-05-09T04:56:58.072Z,11.56
2023-05-09T04:59:34.351Z,11.48
2023-05-09T05:02:02.142Z,11.51
2023-05-09T05:04:30.074Z,11.44
2023-05-09T05:06:57.835Z,11.81
2023-05-09T05:09:26.946Z,12.00
2023-05-09T05:12:01.252Z,11.76
2023-05-09T05:14:30.365Z,12.11
2023-05-09T05:16:58.176Z,11.98
2023-05-09T05:19:26.392Z,12.21
2023-05-09T05:21:54.124Z,12.33
2023-05-09T05:24:21.900Z,12.81
2023-05-09T05:26:51.003Z,12.12
2023-05-09T05:29:18.764Z,12.17
2023-05-09T05:31:46.628Z,12.40
2023-05-09T05:34:16.296Z,12.21
2023-05-09T05:36:44.026Z,12.03
2023-05-09T05:39:11.727Z,12.42
2023-05-09T05:41:39.621Z,12.44
2023-05-09T05:44:08.737Z,12.66
2023-05-09T05:46:36.478Z,12.73
2023-05-09T05:49:04.285Z,13.12
2023-05-09T05:51:32.345Z,12.80
2023-05-09T05:54:00.138Z,13.02
2023-05-09T05:56:28.007Z,12.81
2023-05-09T05:58:55.778Z,12.90
2023-05-09T06:01:24.863Z,13.53
2023-05-09T06:03:54.952Z,13.10
2023-05-09T06:06:23.148Z,12.94
2023-05-09T06:08:51.056Z,13.22
2023-05-09T06:11:19.514Z,12.92
2023-05-09T06:13:47.325Z,13.25
2023-05-09T06:16:19.496Z,14.00
2023-05-09T06:18:49.589Z,14.10
2023-05-09T06:21:17.401Z,13.89
2023-05-09T06:24:01.348Z,13.77
2023-05-09T06:26:33.292Z,14.02
2023-05-09T06:29:01.003Z,14.10
2023-05-09T06:31:28.836Z,14.38
2023-05-09T06:33:57.996Z,14.28
2023-05-09T06:36:26.249Z,14.19
2023-05-09T06:38:53.986Z,14.14
2023-05-09T06:41:21.871Z,13.96
2023-05-09T06:43:50.013Z,14.54
2023-05-09T06:46:18.013Z,14.76
2023-05-09T06:48:45.835Z,14.61
2023-05-09T06:51:14.970Z,15.10
2023-05-09T06:53:42.753Z,14.41
2023-05-09T06:56:10.791Z,14.58
2023-05-09T06:58:38.672Z,14.29
2023-05-09T07:01:06.941Z,14.88
2023-05-09T07:03:34.783Z,14.92
2023-05-09T07:06:02.535Z,15.13
2023-05-09T07:08:31.670Z,14.79
2023-05-09T07:10:59.406Z,15.17
2023-05-09T07:13:27.232Z,14.95
2023-05-09T07:15:55.012Z,15.41
2023-05-09T07:18:22.796Z,14.91
2023-05-09T07:20:51.015Z,14.73
2023-05-09T07:23:18.757Z,14.76
2023-05-09T07:25:47.864Z,15.10
2023-05-09T07:28:15.677Z,15.69
2023-05-09T07:30:43.719Z,15.27
2023-05-09T07:33:11.514Z,15.08
2023-05-09T07:35:40.513Z,15.39
2023-05-09T07:38:08.227Z,15.20
2023-05-09T07:40:37.190Z,15.47
2023-05-09T07:43:06.363Z,15.94
2023-05-09T07:45:34.746Z,15.57
2023-05-09T07:48:02.714Z,16.01
2023-05-09T07:50:30.565Z,16.25
2023-05-09T07:52:58.347Z,16.40
2023-05-09T07:55:26.215Z,16.50
2023-05-09T07:57:53.968Z,17.08
2023-05-09T08:00:24.100Z,16.48
2023-05-09T08:02:52.248Z,16.40
2023-05-09T08:05:20.199Z,16.10
2023-05-09T08:07:47.977Z,16.62
2023-05-09T08:10:16.553Z,16.98
2023-05-09T08:12:44.388Z,16.98
2023-05-09T08:15:12.954Z,16.53
2023-05-09T08:17:42.301Z,16.68
2023-05-09T08:20:11.544Z,16.87
2023-05-09T08:22:40.154Z,17.27
2023-05-09T08:25:08.967Z,17.36
2023-05-09T08:27:36.744Z,17.06
2023-05-09T08:30:05.113Z,16.92
2023-05-09T08:32:32.855Z,17.38
2023-05-09T08:35:02.137Z,17.52
2023-05-09T08:37:29.996Z,17.80
2023-05-09T08:39:57.750Z,17.67
2023-05-09T08:42:26.807Z,17.68
2023-05-09T08:44:54.563Z,17.83
2023-05-09T08:47:22.955Z,17.61
2023-05-09T08:49:52.195Z,17.69
2023-05-09T08:52:21.847Z,17.36
2023-05-09T08:54:49.843Z,17.76
2023-05-09T08:57:17.707Z,17.59
2023-05-09T08:59:46.556Z,17.91
2023-05-09T09:02:15.944Z,18.00
2023-05-09T09:04:45.171Z,17.95
2023-05-09T09:07:14.915Z,17.67
2023-05-09T09:09:47.915Z,18.94
2023-05-09T09:12:17.797Z,18.03
2023-05-09T09:14:50.112Z,18.15
2023-05-09T09:17:21.191Z,18.30
2023-05-09T09:19:50.868Z,18.88
2023-05-09T09:22:20.808Z,18.68
2023-05-09T09:24:50.267Z,19.10
2023-05-09T09:27:18.815Z,18.72
2023-05-09T09:29:46.552Z,18.69
2023-05-09T09:32:14.460Z,18.69
2023-05-09T09:34:42.309Z,18.80
2023-05-09T09:37:10.131Z,18.97
2023-05-09T09:39:38.058Z,18.81
2023-05-09T09:42:13.979Z,19.46
2023-05-09T09:44:41.898Z,19.50
2023-05-09T09:47:11.749Z,18.50
2023-05-09T09:49:47.262Z,19.39
2023-05-09T09:52:24.754Z,19.23
2023-05-09T09:54:52.618Z,20.07
2023-05-09T09:57:37.675Z,20.60
2023-05-09T10:00:07.978Z,20.05
2023-05-09T10:02:35.965Z,19.85
2023-05-09T10:05:10.237Z,20.30
2023-05-09T10:07:38.524Z,21.15
2023-05-09T10:10:07.471Z,22.04
2023-05-09T10:12:39.419Z,21.53
2023-05-09T10:15:10.209Z,21.55
2023-05-09T10:17:38.224Z,22.45
2023-05-09T10:20:07.975Z,22.78
2023-05-09T10:22:39.641Z,22.55
2023-05-09T10:25:15.835Z,22.82
2023-05-09T10:27:47.740Z,23.41
2023-05-09T10:30:19.930Z,22.51
2023-05-09T10:32:54.897Z,22.21
2023-05-09T10:35:27.538Z,22.26
2023-05-09T10:37:57.843Z,22.46
2023-05-09T10:40:26.965Z,22.74
2023-05-09T10:42:56.094Z,23.45
2023-05-09T10:45:24.365Z,22.46
2023-05-09T10:47:53.956Z,22.55
2023-05-09T10:50:22.512Z,22.79
2023-05-09T10:53:11.525Z,23.63
2023-05-09T10:55:40.950Z,23.27
2023-05-09T10:58:21.824Z,22.96
2023-05-09T11:00:50.397Z,22.68
2023-05-09T11:03:19.824Z,23.42
2023-05-09T11:05:48.864Z,23.70
2023-05-09T11:08:21.630Z,23.56
2023-05-09T11:10:49.610Z,23.29
2023-05-09T11:13:23.656Z,23.60
2023-05-09T11:16:04.363Z,24.03
2023-05-09T11:18:33.495Z,23.52
2023-05-09T11:21:09.476Z,23.45
2023-05-09T11:23:39.319Z,23.14
2023-05-09T11:26:08.678Z,24.51
2023-05-09T11:28:39.769Z,24.48
2023-05-09T11:31:12.443Z,24.28
2023-05-09T11:33:41.194Z,23.24
2023-05-09T11:36:20.152Z,23.71
2023-05-09T11:38:49.018Z,24.21
2023-05-09T11:41:17.443Z,23.93
2023-05-09T11:43:46.679Z,23.72
2023-05-09T11:46:14.514Z,23.53
2023-05-09T11:48:43.003Z,23.95
2023-05-09T11:51:18.057Z,24.92
2023-05-09T11:53:46.954Z,24.08
2023-05-09T11:56:16.794Z,25.12
2023-05-09T11:58:46.819Z,23.53
2023-05-09T12:01:14.783Z,23.14
2023-05-09T12:03:45.988Z,24.52
2023-05-09T12:06:17.969Z,23.64
2023-05-09T12:08:46.751Z,24.04
2023-05-09T12:11:15.600Z,22.97
2023-05-09T12:13:48.672Z,24.54
2023-05-09T12:16:17.277Z,24.89
2023-05-09T12:18:48.797Z,24.93
2023-05-09T12:21:16.997Z,24.66
2023-05-09T12:23:45.026Z,24.69
2023-05-09T12:26:13.018Z,24.39
2023-05-09T12:28:41.553Z,24.93
2023-05-09T12:31:11.010Z,25.31
2023-05-09T12:33:39.763Z,24.99
2023-05-09T12:36:10.260Z,25.13
2023-05-09T12:38:38.382Z,24.27
2023-05-09T12:41:15.494Z,24.56
2023-05-09T12:43:56.905Z,24.00
2023-05-09T12:46:26.089Z,24.29
2023-05-09T12:48:54.123Z,24.17
2023-05-09T12:51:22.750Z,25.12
2023-05-09T12:53:50.936Z,24.54
2023-05-09T12:56:20.273Z,24.72
2023-05-09T12:58:52.148Z,23.90
2023-05-09T13:01:20.890Z,23.68
2023-05-09T13:03:54.204Z,24.71
2023-05-09T13:06:24.133Z,24.48
2023-05-09T13:09:00.266Z,24.73
2023-05-09T13:11:28.568Z,26.63
2023-05-09T13:13:56.684Z,25.07
2023-05-09T13:16:24.551Z,26.51
2023-05-09T13:18:53.677Z,25.21
2023-05-09T13:21:21.426Z,25.21
2023-05-09T13:23:50.145Z,24.61
2023-05-09T13:26:18.028Z,25.02
2023-05-09T13:28:45.830Z,25.50
2023-05-09T13:31:14.158Z,25.23
2023-05-09T13:33:42.078Z,24.90
2023-05-09T13:36:11.319Z,24.04
2023-05-09T13:38:40.846Z,25.22
2023-05-09T13:41:08.799Z,24.94
2023-05-09T13:43:37.769Z,25.50
2023-05-09T13:46:05.586Z,26.13
2023-05-09T13:48:33.546Z,24.97
2023-05-09T13:51:01.429Z,25.08
2023-05-09T13:53:30.647Z,24.32
2023-05-09T13:55:58.379Z,23.88
2023-05-09T13:58:26.242Z,25.24
2023-05-09T14:00:53.960Z,25.76
2023-05-09T14:03:21.715Z,25.46
2023-05-09T14:05:49.523Z,25.03
2023-05-09T14:08:17.754Z,26.04
2023-05-09T14:10:48.025Z,24.87
2023-05-09T14:13:16.183Z,25.68
2023-05-09T14:15:44.004Z,25.99
2023-05-09T14:18:15.500Z,24.83
2023-05-09T14:20:45.782Z,25.10
2023-05-09T14:23:13.547Z,25.58
2023-05-09T14:25:41.268Z,25.86
2023-05-09T14:28:10.370Z,25.03
2023-05-09T14:30:38.122Z,25.83
2023-05-09T14:33:05.891Z,25.42
2023-05-09T14:35:34.354Z,25.62
2023-05-09T14:38:02.823Z,25.50
2023-05-09T14:40:32.064Z,25.15
2023-05-09T14:43:02.380Z,24.79
2023-05-09T14:45:32.834Z,25.06
2023-05-09T14:48:01.474Z,26.08
2023-05-09T14:50:29.480Z,25.89
2023-05-09T14:52:57.280Z,25.30
2023-05-09T14:55:26.600Z,24.71
2023-05-09T14:57:54.645Z,24.28
2023-05-09T15:00:23.252Z,24.69
2023-05-09T15:02:52.474Z,26.09
2023-05-09T15:05:20.256Z,25.56
2023-05-09T15:07:48.190Z,24.92
2023-05-09T15:10:16.099Z,24.84
2023-05-09T15:12:44.869Z,24.94
2023-05-09T15:15:17.395Z,24.38
2023-05-09T15:17:45.922Z,25.01
2023-05-09T15:20:16.299Z,24.93
2023-05-09T15:22:44.694Z,24.42
2023-05-09T15:25:12.702Z,25.34
2023-05-09T15:27:40.528Z,24.85
2023-05-09T15:30:09.976Z,24.76
2023-05-09T15:32:39.827Z,25.09
2023-05-09T15:35:08.696Z,24.90
2023-05-09T15:37:38.548Z,25.27
2023-05-09T15:40:08.024Z,24.88
2023-05-09T15:42:36.028Z,24.52
2023-05-09T15:45:04.020Z,24.21
2023-05-09T15:47:31.816Z,23.77
2023-05-09T15:49:59.650Z,24.63
2023-05-09T15:52:27.856Z,24.51
2023-05-09T15:54:57.422Z,24.40
2023-05-09T15:57:25.599Z,23.79
2023-05-09T15:59:55.173Z,24.77
2023-05-09T16:02:23.961Z,24.49
2023-05-09T16:04:52.151Z,24.36
2023-05-09T16:07:20.692Z,25.05
2023-05-09T16:09:49.053Z,24.98
2023-05-09T16:12:18.323Z,24.49
2023-05-09T16:14:46.153Z,24.41
2023-05-09T16:17:13.995Z,24.65
2023-05-09T16:19:42.431Z,24.52
2023-05-09T16:22:10.188Z,24.69
2023-05-09T16:24:38.509Z,24.72
2023-05-09T16:27:06.463Z,24.03
2023-05-09T16:29:35.643Z,23.89
2023-05-09T16:32:03.743Z,23.89
2023-05-09T16:34:31.810Z,24.04
2023-05-09T16:36:59.570Z,22.89
2023-05-09T16:39:28.017Z,22.80
2023-05-09T16:41:56.083Z,23.41
2023-05-09T16:44:24.042Z,22.91
2023-05-09T16:46:53.208Z,23.47
2023-05-09T16:49:21.000Z,22.28
2023-05-09T16:51:48.746Z,23.52
2023-05-09T16:54:16.527Z,23.06
2023-05-09T16:56:44.287Z,23.42
2023-05-09T16:59:12.008Z,23.19
2023-05-09T17:01:39.982Z,22.98
2023-05-09T17:04:09.277Z,22.91
2023-05-09T17:06:37.101Z,22.00
2023-05-09T17:09:05.116Z,22.82
2023-05-09T17:11:33.474Z,22.62
2023-05-09T17:14:03.081Z,21.98
2023-05-09T17:16:30.946Z,21.85
2023-05-09T17:18:59.140Z,21.29
2023-05-09T17:21:29.296Z,21.75
2023-05-09T17:23:57.074Z,21.79
2023-05-09T17:26:25.937Z,21.47
2023-05-09T17:28:53.999Z,21.73
2023-05-09T17:31:21.810Z,21.05
2023-05-09T17:33:49.797Z,20.90
2023-05-09T17:36:17.544Z,20.91
2023-05-09T17:38:46.662Z,21.27
2023-05-09T17:41:14.932Z,20.97
2023-05-09T17:43:42.654Z,20.77
2023-05-09T17:46:10.545Z,20.39
2023-05-09T17:48:38.760Z,20.79
2023-05-09T17:51:07.395Z,20.70
2023-05-09T17:53:35.122Z,20.60
2023-05-09T17:56:04.412Z,21.01
2023-05-09T17:58:32.215Z,20.22
2023-05-09T18:01:00.037Z,19.94
2023-05-09T18:03:29.081Z,20.56
2023-05-09T18:05:57.223Z,20.07
2023-05-09T18:08:25.029Z,20.27
2023-05-09T18:10:54.556Z,20.03
2023-05-09T18:13:23.791Z,20.14
2023-05-09T18:15:53.996Z,20.09
2023-05-09T18:18:22.317Z,19.94
2023-05-09T18:20:50.273Z,19.87
2023-05-09T18:23:18.057Z,20.18
2023-05-09T18:25:45.866Z,19.78
2023-05-09T18:28:13.621Z,19.45
2023-05-09T18:30:42.806Z,19.99
2023-05-09T18:33:10.610Z,19.83
2023-05-09T18:35:38.420Z,19.51
2023-05-09T18:38:06.202Z,19.53
2023-05-09T18:40:34.052Z,19.03
2023-05-09T18:43:01.794Z,19.09
2023-05-09T18:45:30.829Z,19.05
2023-05-09T18:48:00.290Z,18.99
2023-05-09T18:50:28.148Z,19.09
2023-05-09T18:52:56.010Z,19.62
2023-05-09T18:55:24.169Z,18.91
2023-05-09T18:57:51.976Z,18.61
2023-05-09T19:00:19.805Z,18.63
2023-05-09T19:02:47.573Z,18.77
2023-05-09T19:05:16.766Z,18.59
2023-05-09T19:07:44.535Z,18.91
2023-05-09T19:10:13.294Z,18.30
2023-05-09T19:12:41.642Z,18.55
2023-05-09T19:15:10.946Z,18.43
2023-05-09T19:17:39.142Z,18.19
2023-05-09T19:20:08.381Z,18.03
2023-05-09T19:22:37.484Z,18.43
2023-05-09T19:25:05.575Z,17.90
2023-05-09T19:27:33.329Z,17.93
2023-05-09T19:30:02.192Z,17.77
2023-05-09T19:32:30.350Z,17.41
2023-05-09T19:34:58.704Z,17.37
2023-05-09T19:37:26.577Z,17.48
2023-05-09T19:39:55.898Z,17.54
2023-05-09T19:42:23.663Z,17.29
2023-05-09T19:44:52.390Z,17.46
2023-05-09T19:47:20.169Z,17.73
2023-05-09T19:49:47.936Z,17.59
2023-05-09T19:52:15.696Z,17.25
2023-05-09T19:54:43.499Z,17.33
2023-05-09T19:57:13.445Z,17.15
2023-05-09T19:59:41.200Z,17.06
2023-05-09T20:02:09.650Z,17.11
2023-05-09T20:04:38.222Z,16.94
2023-05-09T20:07:06.063Z,17.00
2023-05-09T20:09:33.851Z,16.97
2023-05-09T20:12:03.481Z,17.12
2023-05-09T20:14:32.953Z,17.05
2023-05-09T20:17:00.855Z,16.71
2023-05-09T20:19:29.082Z,17.05
2023-05-09T20:21:57.371Z,16.69
2023-05-09T20:24:25.146Z,16.78
2023-05-09T20:26:54.993Z,16.70
2023-05-09T20:29:22.798Z,16.86
2023-05-09T20:31:52.371Z,16.72
2023-05-09T20:34:21.751Z,16.08
2023-05-09T20:36:53.194Z,16.90
2023-05-09T20:39:21.531Z,16.46
2023-05-09T20:41:50.210Z,16.41
2023-05-09T20:44:19.096Z,16.42
2023-05-09T20:46:47.548Z,16.40
2023-05-09T20:49:16.794Z,16.43
2023-05-09T20:51:44.561Z,16.41
2023-05-09T20:54:12.292Z,16.42
2023-05-09T20:56:40.060Z,17.17
2023-05-09T20:59:07.814Z,16.70
2023-05-09T21:01:36.882Z,16.78
2023-05-09T21:04:05.871Z,16.63
2023-05-09T21:06:35.651Z,16.63
2023-05-09T21:09:03.473Z,16.56
2023-05-09T21:11:31.295Z,16.44
2023-05-09T21:13:59.015Z,16.61
2023-05-09T21:16:28.111Z,16.02
2023-05-09T21:18:55.923Z,16.49
2023-05-09T21:21:23.717Z,16.63
2023-05-09T21:23:52.846Z,16.71
2023-05-09T21:26:21.482Z,16.54
2023-05-09T21:28:49.227Z,16.22
2023-05-09T21:31:17.024Z,15.97
2023-05-09T21:33:44.821Z,16.20
2023-05-09T21:36:12.625Z,15.97
2023-05-09T21:38:40.357Z,16.43
2023-05-09T21:41:10.162Z,16.09
2023-05-09T21:43:38.657Z,15.96
2023-05-09T21:46:06.866Z,15.71
2023-05-09T21:48:34.744Z,16.00
2023-05-09T21:51:03.371Z,15.87
2023-05-09T21:53:31.397Z,15.72
2023-05-09T21:55:59.191Z,16.27
2023-05-09T21:58:28.297Z,15.76
2023-05-09T22:00:56.055Z,15.76
2023-05-09T22:03:23.976Z,15.80
2023-05-09T22:05:51.773Z,15.75
2023-05-09T22:08:19.547Z,15.98
2023-05-09T22:10:47.289Z,15.73
2023-05-09T22:13:15.183Z,15.81
2023-05-09T22:15:44.552Z,15.38
2023-05-09T22:18:12.377Z,15.65
2023-05-09T22:20:40.152Z,15.43
2023-05-09T22:23:07.903Z,15.50
2023-05-09T22:25:35.666Z,15.33
2023-05-09T22:28:03.397Z,15.02
2023-05-09T22:30:31.695Z,15.55
2023-05-09T22:33:01.055Z,15.53
2023-05-09T22:35:28.838Z,15.46
2023-05-09T22:37:56.981Z,15.29
2023-05-09T22:40:24.712Z,14.96
2023-05-09T22:42:53.438Z,15.52
2023-05-09T22:45:21.531Z,15.25
2023-05-09T22:47:49.295Z,15.11
2023-05-09T22:50:18.922Z,14.83
2023-05-09T22:52:46.805Z,15.04
2023-05-09T22:55:15.015Z,15.00
2023-05-09T22:57:42.766Z,14.96
2023-05-09T23:00:11.566Z,14.77
2023-05-09T23:02:39.388Z,14.64
2023-05-09T23:05:08.750Z,14.74
2023-05-09T23:07:38.012Z,14.67
2023-05-09T23:10:06.354Z,14.74
2023-05-09T23:12:34.093Z,14.56
2023-05-09T23:15:01.856Z,14.59
2023-05-09T23:17:29.589Z,14.53
2023-05-09T23:19:57.384Z,14.79
2023-05-09T23:22:25.131Z,14.74
2023-05-09T23:24:54.238Z,14.84
2023-05-09T23:27:22.575Z,14.52
2023-05-09T23:29:50.459Z,14.39
2023-05-09T23:32:18.231Z,14.33
2023-05-09T23:34:45.957Z,14.56
2023-05-09T23:37:13.789Z,14.37
2023-05-09T23:39:41.502Z,14.23
2023-05-09T23:42:10.861Z,14.50
2023-05-09T23:44:38.655Z,14.25
2023-05-09T23:47:06.404Z,14.32
2023-05-09T23:49:34.124Z,14.31
2023-05-09T23:52:01.942Z,14.30
2023-05-09T23:54:29.710Z,14.33
2023-05-09T23:56:58.098Z,13.96
2023-05-09T23:59:27.197Z,14.28
